Time;durP1;ratioP1;P1;durP2;ratioP2;P2;SDS_P1;SDS_P2;PMS_P1;PMS_P2;Temp;Humidity;BMP_temperature;BMP_pressure;BME280_temperature;BME280_humidity;BME280_pressure;Samples;Min_cycle;Max_cycle;Signal;HPM_P1;HPM_P2
2023/08/21 00:09:33;;;;;;;13.93;12.68;;;20.50;99.90;;;;;;5308349;27;20422;-77
2023/08/21 00:12:05;;;;;;;14.77;13.38;;;20.60;99.90;;;;;;5307580;27;20053;-79
2023/08/21 00:14:36;;;;;;;13.43;12.05;;;20.60;99.90;;;;;;5286180;28;20035;-79
2023/08/21 00:17:07;;;;;;;18.42;14.10;;;20.60;99.90;;;;;;5285151;28;20031;-79
2023/08/21 00:19:38;;;;;;;14.05;12.65;;;20.60;99.90;;;;;;5286083;28;20052;-79
2023/08/21 00:22:09;;;;;;;13.02;11.77;;;20.50;99.90;;;;;;5286396;28;20464;-79
2023/08/21 00:24:40;;;;;;;15.40;12.90;;;20.50;99.90;;;;;;5285849;28;20084;-80
2023/08/21 00:27:11;;;;;;;13.55;11.65;;;20.50;99.90;;;;;;5284787;28;20031;-79
2023/08/21 00:29:42;;;;;;;14.18;12.77;;;20.50;99.90;;;;;;5290879;28;20024;-79
2023/08/21 00:32:12;;;;;;;14.18;12.65;;;20.50;99.90;;;;;;5305264;28;20027;-78
2023/08/21 00:34:43;;;;;;;13.57;12.38;;;20.50;99.90;;;;;;5305973;27;20486;-80
2023/08/21 00:37:14;;;;;;;14.85;13.35;;;20.50;99.90;;;;;;5305724;27;20092;-80
2023/08/21 00:39:45;;;;;;;14.15;12.80;;;20.50;99.90;;;;;;5305716;27;20046;-79
2023/08/21 00:42:16;;;;;;;14.77;12.98;;;20.40;99.90;;;;;;5306687;27;20482;-79
2023/08/21 00:44:47;;;;;;;14.95;13.43;;;20.30;99.90;;;;;;5305665;28;20011;-79
2023/08/21 00:47:19;;;;;;;14.65;13.25;;;20.40;99.90;;;;;;5307005;27;20027;-79
2023/08/21 00:49:50;;;;;;;14.82;13.43;;;20.40;99.90;;;;;;5305511;28;20022;-79
2023/08/21 00:52:21;;;;;;;13.85;12.43;;;20.40;99.90;;;;;;5306898;27;20370;-79
2023/08/21 00:54:52;;;;;;;14.75;13.25;;;20.20;99.90;;;;;;5306706;27;20059;-78
2023/08/21 00:57:24;;;;;;;15.20;13.68;;;20.30;99.90;;;;;;5306777;27;20482;-80
2023/08/21 00:59:55;;;;;;;15.00;13.60;;;20.30;99.90;;;;;;5306364;27;20020;-79
2023/08/21 01:02:25;;;;;;;15.35;14.02;;;20.40;99.90;;;;;;5306632;27;20096;-79
2023/08/21 01:04:56;;;;;;;16.60;15.20;;;20.30;99.90;;;;;;5306445;27;20019;-73
2023/08/21 01:07:27;;;;;;;17.23;15.57;;;20.30;99.90;;;;;;5306054;27;20112;-79
2023/08/21 01:10:05;;;;;;;16.65;15.05;;;20.30;99.90;;;;;;5295486;27;20027;-77
2023/08/21 01:13:09;;;;;;;16.35;14.82;;;20.30;99.90;;;;;;5292316;28;20020;-78
2023/08/21 01:15:40;;;;;;;18.63;16.65;;;20.40;99.90;;;;;;5291768;28;20093;-78
2023/08/21 01:18:11;;;;;;;17.13;14.40;;;20.30;99.90;;;;;;5270758;28;20040;-79
2023/08/21 01:20:43;;;;;;;17.55;16.13;;;20.40;99.90;;;;;;5269744;28;20024;-78
2023/08/21 01:23:37;;;;;;;16.58;15.07;;;20.40;99.90;;;;;;5270562;28;20038;-79
2023/08/21 01:26:08;;;;;;;17.70;16.05;;;20.30;99.90;;;;;;5270561;28;20106;-78
2023/08/21 01:28:38;;;;;;;17.92;16.33;;;20.20;99.90;;;;;;5269565;28;20114;-79
2023/08/21 01:31:18;;;;;;;19.10;17.45;;;20.30;99.90;;;;;;5269498;28;20012;-77
2023/08/21 01:33:52;;;;;;;;;;;20.30;99.90;;;;;;5270010;28;20153;-79
2023/08/21 01:36:24;;;;;;;17.02;15.52;;;20.40;99.90;;;;;;5269512;28;20378;-80
2023/08/21 01:38:55;;;;;;;17.20;15.70;;;20.20;99.90;;;;;;5269359;28;20048;-80
2023/08/21 01:41:26;;;;;;;18.35;16.40;;;20.20;99.90;;;;;;5268179;28;20020;-79
2023/08/21 01:43:57;;;;;;;16.95;15.25;;;20.20;99.90;;;;;;5270541;28;20115;-79
2023/08/21 01:46:28;;;;;;;16.90;15.45;;;20.30;99.90;;;;;;5269295;28;20428;-79
2023/08/21 01:49:06;;;;;;;18.55;15.35;;;20.20;99.90;;;;;;5270348;28;20075;-80
2023/08/21 01:51:36;;;;;;;19.63;15.52;;;20.30;99.90;;;;;;5269133;28;20016;-80
2023/08/21 01:54:07;;;;;;;15.60;14.07;;;20.30;99.90;;;;;;5270292;28;20153;-80
2023/08/21 01:56:38;;;;;;;16.05;14.65;;;20.30;99.90;;;;;;5270327;28;20142;-80
2023/08/21 01:59:09;;;;;;;17.63;16.02;;;20.20;99.90;;;;;;5270049;28;20478;-80
2023/08/21 02:01:40;;;;;;;18.40;16.60;;;20.30;99.90;;;;;;5270182;28;20153;-83
2023/08/21 02:04:11;;;;;;;18.30;15.20;;;20.20;99.90;;;;;;5270241;28;20464;-82
2023/08/21 02:06:43;;;;;;;17.65;15.05;;;20.30;99.90;;;;;;5270258;28;20597;-82
2023/08/21 02:09:14;;;;;;;17.75;15.90;;;20.30;99.90;;;;;;5268938;28;20048;-82
2023/08/21 02:11:45;;;;;;;17.80;15.95;;;20.40;99.90;;;;;;5269113;28;20039;-81
2023/08/21 02:14:16;;;;;;;16.15;14.57;;;20.40;99.90;;;;;;5269138;28;20383;-81
2023/08/21 02:16:47;;;;;;;16.98;15.25;;;20.40;99.90;;;;;;5270323;28;20016;-81
2023/08/21 02:19:18;;;;;;;17.02;15.35;;;20.50;99.90;;;;;;5269729;28;20396;-81
2023/08/21 02:21:49;;;;;;;17.98;15.93;;;20.40;99.90;;;;;;5268634;28;20028;-80
2023/08/21 02:24:20;;;;;;;16.23;14.73;;;20.50;99.90;;;;;;5267954;28;20552;-80
2023/08/21 02:26:50;;;;;;;16.10;14.48;;;20.40;99.90;;;;;;5267591;28;20027;-81
2023/08/21 02:29:21;;;;;;;17.80;15.90;;;20.40;99.90;;;;;;5268679;28;20036;-81
2023/08/21 02:31:52;;;;;;;16.85;15.32;;;20.40;99.90;;;;;;5268773;28;20028;-81
2023/08/21 02:34:23;;;;;;;17.80;16.08;;;20.50;99.90;;;;;;5268806;28;20051;-82
2023/08/21 02:36:54;;;;;;;19.25;17.25;;;20.40;99.90;;;;;;5267091;28;20067;-79
2023/08/21 02:39:25;;;;;;;17.13;15.63;;;20.50;99.90;;;;;;5269642;28;20377;-80
2023/08/21 02:41:55;;;;;;;17.35;15.43;;;20.50;99.90;;;;;;5269716;28;20356;-81
2023/08/21 02:44:26;;;;;;;18.60;16.63;;;20.40;99.90;;;;;;5269478;28;20489;-80
2023/08/21 02:46:57;;;;;;;17.90;16.10;;;20.30;99.90;;;;;;5269179;28;20147;-81
2023/08/21 02:49:28;;;;;;;19.23;16.45;;;20.50;99.90;;;;;;5269645;28;20099;-81
2023/08/21 02:51:59;;;;;;;17.42;15.57;;;20.30;99.90;;;;;;5269137;28;20035;-81
2023/08/21 02:54:30;;;;;;;16.85;15.25;;;20.30;99.90;;;;;;5269395;28;20020;-81
2023/08/21 02:57:00;;;;;;;17.27;15.25;;;20.40;99.90;;;;;;5267476;28;20028;-81
2023/08/21 02:59:31;;;;;;;17.77;16.02;;;20.40;99.90;;;;;;5269081;28;20479;-81
2023/08/21 03:02:02;;;;;;;18.35;16.42;;;20.50;99.90;;;;;;5268100;28;20372;-81
2023/08/21 03:04:33;;;;;;;16.67;15.10;;;20.20;99.90;;;;;;5267965;28;20034;-80
2023/08/21 03:07:13;;;;;;;16.27;14.73;;;20.30;99.90;;;;;;5268499;28;20547;-81
2023/08/21 03:09:54;;;;;;;17.00;15.10;;;20.40;99.90;;;;;;5269209;28;20063;-81
2023/08/21 03:12:41;;;;;;;16.60;13.73;;;20.40;99.90;;;;;;5269044;28;20530;-81
2023/08/21 03:15:11;;;;;;;16.50;15.05;;;20.40;99.90;;;;;;5268970;28;20439;-81
2023/08/21 03:17:42;;;;;;;15.18;13.18;;;20.40;99.90;;;;;;5268362;28;20115;-79
2023/08/21 03:20:13;;;;;;;20.42;14.60;;;20.20;99.90;;;;;;5267926;28;20032;-80
2023/08/21 03:22:44;;;;;;;15.68;14.27;;;20.30;99.90;;;;;;5268310;28;20485;-81
2023/08/21 03:25:15;;;;;;;16.15;14.52;;;20.40;99.90;;;;;;5268038;28;20112;-81
2023/08/21 03:27:49;;;;;;;18.77;14.02;;;20.30;99.90;;;;;;5268149;28;20036;-82
2023/08/21 03:30:20;;;;;;;18.38;13.23;;;20.40;99.90;;;;;;5267560;28;20024;-80
2023/08/21 03:32:51;;;;;;;15.85;13.40;;;20.40;99.90;;;;;;5268649;28;20424;-78
2023/08/21 03:35:21;;;;;;;15.23;13.35;;;20.30;99.90;;;;;;5269902;28;20062;-76
2023/08/21 03:37:52;;;;;;;15.95;12.02;;;20.40;99.90;;;;;;5289606;28;20044;-81
2023/08/21 03:40:23;;;;;;;14.50;12.68;;;20.40;99.90;;;;;;5289674;28;20078;-77
2023/08/21 03:42:54;;;;;;;16.83;13.27;;;20.50;99.90;;;;;;5290129;28;20052;-78
2023/08/21 03:45:25;;;;;;;14.35;13.05;;;20.50;99.90;;;;;;5290169;28;20034;-77
2023/08/21 03:47:56;;;;;;;17.50;12.13;;;20.50;99.90;;;;;;5289824;28;20024;-78
2023/08/21 03:50:26;;;;;;;14.65;12.90;;;20.50;99.90;;;;;;5289345;28;20340;-78
2023/08/21 03:52:57;;;;;;;15.07;12.93;;;20.40;99.90;;;;;;5289669;28;20023;-78
2023/08/21 03:55:28;;;;;;;16.20;13.63;;;20.40;99.90;;;;;;5280792;28;20035;-77
2023/08/21 03:57:59;;;;;;;14.93;13.00;;;20.40;99.90;;;;;;5276412;28;20031;-77
2023/08/21 04:00:30;;;;;;;14.05;12.65;;;20.50;99.90;;;;;;5276469;28;20028;-74
2023/08/21 04:03:01;;;;;;;14.93;12.30;;;20.50;99.90;;;;;;5281762;28;20391;-77
2023/08/21 04:05:32;;;;;;;13.23;11.50;;;20.70;99.90;;;;;;5279872;28;20035;-78
2023/08/21 04:08:03;;;;;;;14.90;12.90;;;20.70;99.90;;;;;;5275796;28;20063;-77
2023/08/21 04:10:34;;;;;;;14.25;11.93;;;20.80;99.90;;;;;;5274710;28;20036;-77
2023/08/21 04:13:05;;;;;;;12.73;11.52;;;21.00;99.90;;;;;;5286190;28;20020;-76
2023/08/21 04:15:36;;;;;;;13.65;12.35;;;21.00;99.90;;;;;;5276655;28;20375;-78
2023/08/21 04:18:07;;;;;;;13.50;12.02;;;21.10;99.90;;;;;;5267326;28;20032;-78
2023/08/21 04:20:38;;;;;;;13.00;10.70;;;21.00;99.90;;;;;;5284086;28;20153;-76
2023/08/21 04:23:09;;;;;;;13.63;12.13;;;21.20;99.90;;;;;;5280719;28;20031;-77
2023/08/21 04:25:40;;;;;;;15.18;11.38;;;21.30;99.90;;;;;;5273318;28;20023;-78
2023/08/21 04:28:10;;;;;;;12.43;11.13;;;21.20;99.90;;;;;;5277213;28;20040;-78
2023/08/21 04:30:44;;;;;;;13.48;10.57;;;21.40;99.90;;;;;;5278793;28;20024;-75
2023/08/21 04:33:15;;;;;;;13.13;11.57;;;21.60;99.90;;;;;;5281555;28;20019;-78
2023/08/21 04:35:46;;;;;;;17.38;10.30;;;21.60;99.90;;;;;;5276635;28;20496;-77
2023/08/21 04:38:17;;;;;;;12.35;11.10;;;21.80;99.90;;;;;;5281621;28;20036;-78
2023/08/21 04:40:48;;;;;;;12.07;10.77;;;21.70;99.90;;;;;;5289157;28;20023;-75
2023/08/21 04:43:18;;;;;;;13.93;11.02;;;21.70;99.90;;;;;;5283471;28;20553;-77
2023/08/21 04:45:55;;;;;;;11.52;10.32;;;21.90;99.90;;;;;;5284352;28;20020;-78
2023/08/21 04:48:26;;;;;;;13.32;10.77;;;21.90;99.90;;;;;;5284627;28;20028;-78
2023/08/21 04:50:56;;;;;;;12.35;9.80;;;22.00;99.90;;;;;;5281831;28;20344;-78
2023/08/21 04:53:27;;;;;;;14.45;10.38;;;22.10;99.90;;;;;;5293104;28;20035;-78
2023/08/21 04:56:00;;;;;;;10.85;9.77;;;22.30;99.90;;;;;;5292563;28;20035;-77
2023/08/21 04:58:31;;;;;;;10.00;9.10;;;22.30;99.90;;;;;;5292291;28;20498;-77
2023/08/21 05:01:01;;;;;;;11.32;9.38;;;22.40;99.90;;;;;;5292181;28;20019;-78
2023/08/21 05:03:32;;;;;;;13.68;9.50;;;22.50;99.90;;;;;;5292344;28;20033;-78
2023/08/21 05:06:03;;;;;;;12.13;9.40;;;22.50;99.90;;;;;;5292160;28;20019;-77
2023/08/21 05:08:34;;;;;;;11.38;8.82;;;22.60;99.90;;;;;;5291591;28;20662;-77
2023/08/21 05:11:05;;;;;;;12.00;9.98;;;22.80;99.90;;;;;;5291750;28;20114;-78
2023/08/21 05:13:36;;;;;;;14.05;9.88;;;22.90;99.90;;;;;;5292699;28;20522;-75
2023/08/21 05:16:07;;;;;;;14.98;9.02;;;23.00;99.90;;;;;;5292769;28;20059;-78
2023/08/21 05:18:37;;;;;;;11.25;8.40;;;22.90;99.90;;;;;;5292486;28;20036;-78
2023/08/21 05:21:08;;;;;;;10.00;8.82;;;23.10;99.90;;;;;;5292848;28;20034;-78
2023/08/21 05:23:39;;;;;;;12.40;8.90;;;23.20;99.90;;;;;;5292863;28;20055;-77
2023/08/21 05:26:10;;;;;;;11.00;8.25;;;23.30;99.90;;;;;;5292080;28;20031;-78
2023/08/21 05:28:41;;;;;;;8.95;8.00;;;23.40;99.90;;;;;;5292070;28;20027;-78
2023/08/21 05:31:12;;;;;;;9.80;7.68;;;23.50;99.90;;;;;;5291795;28;20137;-78
2023/08/21 05:33:43;;;;;;;14.73;8.75;;;23.70;99.90;;;;;;5291272;28;20016;-78
2023/08/21 05:36:14;;;;;;;14.27;9.63;;;23.70;99.90;;;;;;5291462;28;20027;-78
2023/08/21 05:38:45;;;;;;;10.23;8.40;;;23.90;99.90;;;;;;5291271;28;20035;-78
2023/08/21 05:41:16;;;;;;;14.55;8.70;;;24.10;99.90;;;;;;5291282;28;20035;-78
2023/08/21 05:43:48;;;;;;;12.93;9.68;;;24.20;99.90;;;;;;5291678;28;20035;-78
2023/08/21 05:46:20;;;;;;;16.70;9.35;;;24.30;99.90;;;;;;5290421;28;20069;-78
2023/08/21 05:48:50;;;;;;;10.73;7.97;;;24.60;99.90;;;;;;5275451;28;20413;-77
2023/08/21 05:51:21;;;;;;;17.42;8.05;;;24.70;99.90;;;;;;5270133;28;20032;-77
2023/08/21 05:53:52;;;;;;;18.38;9.88;;;24.80;99.90;;;;;;5275961;28;20032;-77
2023/08/21 05:56:23;;;;;;;20.60;9.48;;;25.00;99.90;;;;;;5282029;28;20059;-78
2023/08/21 05:58:54;;;;;;;10.90;9.07;;;25.30;99.90;;;;;;5272855;28;20042;-78
2023/08/21 06:01:25;;;;;;;14.80;8.23;;;25.40;99.90;;;;;;5270123;28;20028;-78
2023/08/21 06:03:57;;;;;;;11.68;7.57;;;25.50;99.90;;;;;;5270613;28;20020;-78
2023/08/21 06:06:28;;;;;;;13.40;7.70;;;25.60;99.90;;;;;;5270685;28;20103;-78
2023/08/21 06:08:59;;;;;;;11.77;8.95;;;25.80;99.90;;;;;;5270281;28;20127;-76
2023/08/21 06:11:30;;;;;;;13.77;9.15;;;26.00;99.90;;;;;;5269272;28;20126;-78
2023/08/21 06:14:01;;;;;;;11.40;8.77;;;26.00;99.90;;;;;;5269844;28;20488;-78
2023/08/21 06:16:32;;;;;;;12.65;8.35;;;26.10;99.90;;;;;;5270449;28;20062;-77
2023/08/21 06:19:02;;;;;;;11.90;9.20;;;26.20;99.90;;;;;;5269175;28;20139;-77
2023/08/21 06:21:33;;;;;;;12.27;9.23;;;26.40;99.90;;;;;;5268213;28;20077;-78
2023/08/21 06:24:04;;;;;;;16.27;9.70;;;26.50;99.90;;;;;;5269589;28;20024;-78
2023/08/21 06:26:35;;;;;;;13.00;10.32;;;26.60;99.90;;;;;;5277137;28;20072;-78
2023/08/21 06:29:06;;;;;;;13.75;9.07;;;26.60;99.90;;;;;;5290558;28;20519;-77
2023/08/21 06:31:37;;;;;;;10.57;8.75;;;26.80;99.90;;;;;;5290260;28;20042;-77
2023/08/21 06:34:08;;;;;;;16.40;8.38;;;26.90;99.90;;;;;;5290346;28;20422;-78
2023/08/21 06:36:38;;;;;;;12.98;8.93;;;27.00;99.90;;;;;;5273726;28;20097;-78
2023/08/21 06:39:09;;;;;;;15.65;8.52;;;27.00;99.90;;;;;;5269323;28;20066;-77
2023/08/21 06:41:40;;;;;;;15.23;8.70;;;27.10;99.90;;;;;;5269497;28;20367;-77
2023/08/21 06:44:11;;;;;;;15.23;9.50;;;27.20;99.90;;;;;;5269034;28;20028;-77
2023/08/21 06:46:42;;;;;;;15.35;9.82;;;27.20;99.90;;;;;;5269411;28;20024;-76
2023/08/21 06:49:13;;;;;;;16.13;10.80;;;27.30;99.90;;;;;;5269299;28;20077;-77
2023/08/21 06:51:44;;;;;;;15.45;13.02;;;27.40;99.90;;;;;;5269331;28;20417;-77
2023/08/21 06:54:15;;;;;;;17.17;13.02;;;27.50;99.90;;;;;;5269400;28;20062;-76
2023/08/21 06:56:46;;;;;;;16.52;14.95;;;27.50;99.90;;;;;;5269276;28;20035;-77
2023/08/21 06:59:16;;;;;;;18.38;16.25;;;27.60;99.90;;;;;;5268990;28;20036;-77
2023/08/21 07:01:47;;;;;;;18.60;16.75;;;27.70;99.90;;;;;;5269927;28;20376;-77
2023/08/21 07:04:18;;;;;;;19.42;15.35;;;27.80;99.90;;;;;;5269712;28;20035;-76
2023/08/21 07:06:49;;;;;;;17.33;15.63;;;27.80;99.90;;;;;;5268717;28;20024;-76
2023/08/21 07:09:20;;;;;;;15.95;14.15;;;27.80;99.90;;;;;;5269461;28;20044;-77
2023/08/21 07:11:51;;;;;;;19.08;12.40;;;27.90;99.90;;;;;;5269121;28;20032;-76
2023/08/21 07:14:22;;;;;;;13.05;11.77;;;27.90;99.90;;;;;;5269315;28;20024;-77
2023/08/21 07:16:52;;;;;;;12.38;10.45;;;28.00;99.90;;;;;;5267679;28;20070;-77
2023/08/21 07:19:23;;;;;;;18.10;9.98;;;28.00;99.90;;;;;;5268771;28;20039;-76
2023/08/21 07:21:54;;;;;;;14.43;8.48;;;28.10;99.90;;;;;;5269081;28;20020;-77
2023/08/21 07:24:25;;;;;;;11.50;7.30;;;28.20;99.90;;;;;;5268988;28;20085;-76
2023/08/21 07:26:56;;;;;;;13.73;7.00;;;28.20;99.90;;;;;;5269387;28;20053;-76
2023/08/21 07:29:27;;;;;;;19.63;6.82;;;28.40;99.90;;;;;;5269355;28;20024;-76
2023/08/21 07:31:58;;;;;;;11.60;6.93;;;28.30;99.90;;;;;;5269377;28;20020;-77
2023/08/21 07:34:29;;;;;;;8.50;6.82;;;28.40;99.90;;;;;;5268749;28;20031;-76
2023/08/21 07:36:59;;;;;;;11.68;6.78;;;28.50;99.90;;;;;;5268535;28;20035;-77
2023/08/21 07:39:30;;;;;;;12.90;6.38;;;28.60;99.90;;;;;;5268882;28;20478;-77
2023/08/21 07:42:01;;;;;;;15.70;6.78;;;28.80;99.90;;;;;;5268570;28;20022;-76
2023/08/21 07:44:32;;;;;;;12.40;6.75;;;28.90;99.90;;;;;;5268470;28;20052;-76
2023/08/21 07:47:03;;;;;;;11.00;7.00;;;28.80;99.90;;;;;;5268388;28;20092;-77
2023/08/21 07:49:34;;;;;;;15.25;8.13;;;29.00;99.90;;;;;;5268318;28;20047;-77
2023/08/21 07:52:05;;;;;;;15.00;8.57;;;28.90;99.90;;;;;;5268629;28;20099;-77
2023/08/21 07:54:36;;;;;;;14.07;8.65;;;29.00;99.90;;;;;;5270756;28;20039;-76
2023/08/21 07:57:07;;;;;;;10.07;8.13;;;29.00;99.90;;;;;;5289946;28;20023;-77
2023/08/21 07:59:37;;;;;;;11.52;7.82;;;29.00;99.90;;;;;;5290018;28;20157;-77
2023/08/21 08:02:09;;;;;;;18.45;7.10;;;29.10;99.90;;;;;;5290201;28;20016;-77
2023/08/21 08:04:43;;;;;;;17.85;7.72;;;29.10;99.90;;;;;;5290024;28;20408;-76
2023/08/21 08:07:13;;;;;;;9.60;7.32;;;29.10;99.90;;;;;;5289657;28;20362;-77
2023/08/21 08:09:44;;;;;;;21.67;8.88;;;29.10;99.90;;;;;;5289407;28;20031;-76
2023/08/21 08:12:15;;;;;;;13.15;8.40;;;29.10;99.90;;;;;;5289742;28;20024;-77
2023/08/21 08:14:46;;;;;;;14.52;9.25;;;29.00;99.90;;;;;;5289011;28;20061;-77
2023/08/21 08:17:17;;;;;;;11.85;10.05;;;28.90;99.90;;;;;;5289072;28;20043;-77
2023/08/21 08:19:48;;;;;;;12.82;9.60;;;29.00;99.90;;;;;;5291407;28;20028;-77
2023/08/21 08:22:19;;;;;;;14.25;11.02;;;29.10;99.90;;;;;;5292356;28;20024;-77
2023/08/21 08:24:50;;;;;;;16.77;11.13;;;29.10;99.90;;;;;;5293592;28;20103;-77
2023/08/21 08:27:20;;;;;;;15.15;10.18;;;29.20;99.90;;;;;;5293631;28;20471;-76
2023/08/21 08:29:51;;;;;;;11.40;10.25;;;29.10;99.90;;;;;;5294048;27;20085;-77
2023/08/21 08:32:22;;;;;;;14.15;11.10;;;29.00;99.90;;;;;;5293884;28;20019;-76
2023/08/21 08:34:53;;;;;;;15.77;11.90;;;29.20;99.90;;;;;;5294067;28;20460;-77
2023/08/21 08:37:24;;;;;;;41.83;10.65;;;29.20;99.90;;;;;;5293738;28;20364;-76
2023/08/21 08:39:55;;;;;;;13.40;9.52;;;29.40;99.90;;;;;;5293648;28;20035;-76
2023/08/21 08:42:26;;;;;;;14.95;9.63;;;29.50;99.90;;;;;;5293543;28;20016;-76
2023/08/21 08:45:00;;;;;;;13.95;9.13;;;29.40;99.90;;;;;;5293947;28;20028;-77
2023/08/21 08:47:33;;;;;;;13.40;10.07;;;29.40;99.90;;;;;;5293731;28;20075;-76
2023/08/21 08:50:11;;;;;;;13.07;10.10;;;29.50;99.90;;;;;;5293573;28;20027;-77
2023/08/21 08:52:42;;;;;;;12.77;10.18;;;29.40;99.90;;;;;;5293268;28;20024;-77
2023/08/21 08:55:14;;;;;;;11.18;9.77;;;29.20;99.90;;;;;;5293198;28;20035;-76
2023/08/21 08:57:45;;;;;;;14.23;11.05;;;29.40;99.90;;;;;;5292944;28;20058;-75
2023/08/21 09:00:16;;;;;;;13.50;10.23;;;29.30;99.90;;;;;;5274964;27;20071;-77
2023/08/21 09:02:47;;;;;;;18.15;11.90;;;29.10;99.90;;;;;;5272208;28;20467;-78
2023/08/21 09:05:18;;;;;;;15.05;11.38;;;29.40;99.90;;;;;;5271962;28;20024;-77
2023/08/21 09:08:08;;;;;;;13.00;10.73;;;29.50;99.90;;;;;;5274053;28;20461;-78
2023/08/21 09:10:41;;;;;;;12.50;10.07;;;29.40;99.90;;;;;;5270365;28;20035;-77
2023/08/21 09:13:19;;;;;;;15.20;9.00;;;29.50;99.90;;;;;;5269620;28;20032;-77
2023/08/21 09:15:55;;;;;;;16.40;8.63;;;29.70;99.90;;;;;;5270407;28;20078;-77
2023/08/21 09:18:26;;;;;;;14.20;9.18;;;29.50;99.90;;;;;;5270674;28;20036;-78
2023/08/21 09:20:57;;;;;;;12.73;9.18;;;29.50;99.90;;;;;;5270405;28;20028;-78
2023/08/21 09:23:28;;;;;;;16.17;8.63;;;29.70;99.90;;;;;;5269284;28;20032;-77
2023/08/21 09:26:02;;;;;;;12.23;8.32;;;29.70;99.90;;;;;;5271119;28;20016;-75
2023/08/21 09:28:33;;;;;;;13.43;7.93;;;29.90;99.90;;;;;;5271080;28;20027;-78
2023/08/21 09:31:05;;;;;;;12.43;7.40;;;30.10;99.90;;;;;;5270722;28;20024;-78
2023/08/21 09:33:36;;;;;;;14.63;7.70;;;30.10;99.90;;;;;;5271218;28;20039;-77
2023/08/21 09:36:10;;;;;;;12.93;7.03;;;29.90;99.90;;;;;;5271333;28;20020;-78
2023/08/21 09:38:46;;;;;;;19.52;6.38;;;30.20;99.90;;;;;;5270752;28;20513;-78
2023/08/21 09:41:23;;;;;;;10.27;6.25;;;30.20;99.90;;;;;;5271274;28;20035;-78
2023/08/21 09:43:59;;;;;;;17.10;5.80;;;30.30;99.90;;;;;;5271065;28;20024;-78
2023/08/21 09:46:30;;;;;;;9.43;6.00;;;30.20;99.90;;;;;;5270978;28;20039;-76
2023/08/21 09:49:03;;;;;;;9.57;6.07;;;30.40;99.90;;;;;;5270818;28;20016;-77
2023/08/21 09:51:33;;;;;;;13.57;5.97;;;30.30;99.90;;;;;;5270734;28;20024;-77
2023/08/21 09:54:06;;;;;;;8.02;5.72;;;30.50;99.90;;;;;;5270723;28;20337;-78
2023/08/21 09:56:37;;;;;;;24.23;6.35;;;30.30;99.90;;;;;;5270617;28;20025;-75
2023/08/21 09:59:09;;;;;;;13.73;5.85;;;30.40;99.90;;;;;;5270234;28;20028;-77
2023/08/21 10:01:40;;;;;;;12.55;5.20;;;30.40;99.90;;;;;;5270456;28;20089;-77
2023/08/21 10:04:13;;;;;;;10.07;5.57;;;30.60;99.90;;;;;;5272023;28;20107;-77
2023/08/21 10:06:46;;;;;;;10.52;5.28;;;30.80;99.90;;;;;;5269476;28;20032;-80
2023/08/21 10:09:17;;;;;;;12.60;5.63;;;30.80;99.90;;;;;;5268928;28;20101;-78
2023/08/21 10:11:48;;;;;;;16.00;5.72;;;30.90;99.90;;;;;;5269491;28;20093;-75
2023/08/21 10:14:22;;;;;;;10.52;5.43;;;31.00;99.90;;;;;;5269188;28;20028;-78
2023/08/21 10:16:54;;;;;;;12.02;5.32;;;31.00;99.90;;;;;;5289485;28;20044;-84
2023/08/21 10:19:31;;;;;;;13.35;5.38;;;31.10;99.90;;;;;;5290385;28;20130;-80
2023/08/21 10:22:03;;;;;;;7.38;4.95;;;31.20;99.90;;;;;;5291173;28;20129;-84
2023/08/21 10:24:36;;;;;;;30.45;5.78;;;31.20;99.90;;;;;;5291033;28;20047;-74
2023/08/21 10:27:08;;;;;;;13.60;5.03;;;31.30;99.90;;;;;;5292109;28;20026;-79
2023/08/21 10:29:39;;;;;;;11.85;5.22;;;31.20;99.90;;;;;;5291937;28;20475;-88
2023/08/21 10:32:10;;;;;;;12.43;5.22;;;31.20;99.90;;;;;;5291496;28;20073;-78
2023/08/21 10:34:53;;;;;;;11.73;4.82;;;31.20;99.90;;;;;;5291631;27;20016;-77
2023/08/21 10:37:24;;;;;;;15.13;6.38;;;31.20;99.90;;;;;;5291338;28;20035;-81
2023/08/21 10:39:56;;;;;;;16.15;6.32;;;31.20;99.90;;;;;;5291267;28;20514;-81
2023/08/21 10:42:42;;;;;;;16.02;6.22;;;31.20;99.90;;;;;;5290663;28;20469;-81
2023/08/21 10:45:13;;;;;;;13.57;8.18;;;31.30;99.90;;;;;;5289995;28;20028;-78
2023/08/21 10:47:46;;;;;;;15.05;6.78;;;31.20;99.90;;;;;;5290206;28;20026;-75
2023/08/21 10:50:17;;;;;;;14.10;6.10;;;31.50;99.90;;;;;;5289472;28;20506;-74
2023/08/21 10:52:52;;;;;;;8.23;5.20;;;31.60;99.90;;;;;;5289990;28;20019;-74
2023/08/21 10:55:22;;;;;;;11.43;5.20;;;31.70;99.90;;;;;;5289968;28;20074;-74
2023/08/21 10:57:53;;;;;;;8.18;4.68;;;31.70;99.90;;;;;;5288911;28;20074;-74
2023/08/21 11:00:24;;;;;;;14.88;4.85;;;31.70;99.90;;;;;;5289308;28;20015;-74
2023/08/21 11:02:55;;;;;;;11.55;5.18;;;31.70;99.90;;;;;;5288567;28;20034;-74
2023/08/21 11:05:26;;;;;;;11.07;5.25;;;31.70;99.90;;;;;;5288554;28;20022;-73
2023/08/21 11:07:57;;;;;;;11.40;5.65;;;31.80;99.90;;;;;;5288164;28;20036;-75
2023/08/21 11:10:33;;;;;;;12.32;5.68;;;31.80;99.90;;;;;;5288512;28;20431;-76
2023/08/21 11:13:06;;;;;;;13.20;6.55;;;31.70;99.90;;;;;;5288504;28;20024;-72
2023/08/21 11:15:37;;;;;;;13.95;5.80;;;31.50;99.90;;;;;;5289090;28;20028;-77
2023/08/21 11:18:08;;;;;;;29.67;5.93;;;31.70;99.90;;;;;;5289742;28;20156;-72
2023/08/21 11:20:39;;;;;;;9.80;5.55;;;31.70;99.90;;;;;;5289743;27;20509;-72
2023/08/21 11:23:10;;;;;;;13.25;5.90;;;31.70;99.90;;;;;;5289726;28;20012;-72
2023/08/21 11:25:41;;;;;;;15.32;5.93;;;31.70;99.90;;;;;;5289573;28;20065;-72
2023/08/21 11:28:16;;;;;;;16.73;6.70;;;31.80;99.90;;;;;;5289414;28;20020;-72
2023/08/21 11:30:46;;;;;;;13.65;6.78;;;31.80;99.90;;;;;;5289491;28;20031;-71
2023/08/21 11:33:18;;;;;;;14.18;6.95;;;31.70;99.90;;;;;;5285182;28;20096;-73
2023/08/21 11:35:49;;;;;;;13.00;7.18;;;31.40;99.90;;;;;;5283033;28;20047;-72
2023/08/21 11:38:22;;;;;;;14.90;5.97;;;31.30;99.90;;;;;;5287713;28;20054;-72
2023/08/21 11:40:56;;;;;;;13.80;6.00;;;31.60;99.90;;;;;;5287991;28;20497;-72
2023/08/21 11:43:36;;;;;;;10.80;6.47;;;31.70;99.90;;;;;;5287935;28;20080;-73
2023/08/21 11:46:13;;;;;;;13.18;6.30;;;31.50;99.90;;;;;;5288014;28;20097;-72
2023/08/21 11:48:45;;;;;;;14.57;6.55;;;31.50;99.90;;;;;;5287104;28;20035;-73
2023/08/21 11:51:15;;;;;;;16.00;6.15;;;31.50;99.90;;;;;;5276062;28;20028;-72
2023/08/21 11:53:48;;;;;;;13.43;6.40;;;31.50;99.90;;;;;;5288579;28;20036;-72
2023/08/21 11:56:19;;;;;;;17.25;5.75;;;31.40;99.90;;;;;;5277040;28;20487;-72
2023/08/21 11:58:50;;;;;;;8.75;6.55;;;31.50;99.90;;;;;;5288878;28;20039;-79
2023/08/21 12:01:22;;;;;;;38.42;6.35;;;31.50;99.90;;;;;;5288937;28;20022;-72
2023/08/21 12:03:56;;;;;;;11.13;6.32;;;31.30;99.90;;;;;;5288816;28;20047;-71
2023/08/21 12:06:32;;;;;;;10.55;5.65;;;31.50;99.90;;;;;;5288834;28;20517;-77
2023/08/21 12:09:04;;;;;;;9.73;6.25;;;31.50;99.90;;;;;;5288611;28;20091;-72
2023/08/21 12:11:37;;;;;;;9.45;5.18;;;31.50;99.90;;;;;;5288679;28;20030;-72
2023/08/21 12:14:08;;;;;;;10.40;5.82;;;31.60;99.90;;;;;;5280960;28;20020;-72
2023/08/21 12:16:39;;;;;;;10.73;5.82;;;31.80;99.90;;;;;;5270327;28;20375;-72
2023/08/21 12:19:11;;;;;;;13.27;6.97;;;31.60;99.90;;;;;;5267496;28;20078;-79
2023/08/21 12:21:42;;;;;;;9.73;6.43;;;31.60;99.90;;;;;;5269932;28;20615;-74
2023/08/21 12:24:13;;;;;;;16.17;6.57;;;31.60;99.90;;;;;;5279956;28;20032;-73
2023/08/21 12:26:44;;;;;;;7.80;5.90;;;31.60;99.90;;;;;;5275946;28;20028;-72
2023/08/21 12:29:15;;;;;;;11.48;6.88;;;31.50;99.90;;;;;;5266626;28;20024;-72
2023/08/21 12:31:46;;;;;;;12.77;6.55;;;31.40;99.90;;;;;;5266941;28;20475;-72
2023/08/21 12:34:17;;;;;;;9.40;6.45;;;31.50;99.90;;;;;;5266399;28;20017;-72
2023/08/21 12:36:50;;;;;;;13.60;6.95;;;31.50;99.90;;;;;;5266373;28;20349;-72
2023/08/21 12:39:21;;;;;;;14.07;6.88;;;31.50;99.90;;;;;;5266266;28;20036;-72
2023/08/21 12:41:52;;;;;;;15.15;7.03;;;31.40;99.90;;;;;;5266208;28;20035;-72
2023/08/21 12:44:23;;;;;;;15.20;6.65;;;31.40;99.90;;;;;;5266469;28;20027;-72
2023/08/21 12:46:54;;;;;;;15.68;6.85;;;31.50;99.90;;;;;;5266106;28;20067;-72
2023/08/21 12:49:25;;;;;;;12.23;6.22;;;31.40;99.90;;;;;;5267516;28;20028;-72
2023/08/21 12:51:56;;;;;;;11.32;6.25;;;31.30;99.90;;;;;;5267378;28;20035;-71
2023/08/21 12:54:26;;;;;;;14.07;5.75;;;31.30;99.90;;;;;;5267524;28;20107;-71
2023/08/21 12:56:57;;;;;;;13.75;6.85;;;31.40;99.90;;;;;;5267507;28;20025;-71
2023/08/21 12:59:28;;;;;;;8.98;5.57;;;31.40;99.90;;;;;;5267318;28;20109;-72
2023/08/21 13:02:03;;;;;;;8.65;6.20;;;31.20;99.90;;;;;;5267236;28;20021;-71
2023/08/21 13:04:34;;;;;;;9.95;6.03;;;31.10;99.90;;;;;;5267463;28;20471;-77